Time;durP1;ratioP1;P1;durP2;ratioP2;P2;SDS_P1;SDS_P2;PMS_P1;PMS_P2;Temp;Humidity;BMP_temperature;BMP_pressure;BME280_temperature;BME280_humidity;BME280_pressure;Samples;Min_cycle;Max_cycle;Signal;HPM_P1;HPM_P2
2021/06/08 00:00:58;;;;;;;13.87;7.10;;;;;;;13.55;61.16;99726.63;526014;1093;116069;-59
2021/06/08 00:11:04;;;;;;;10.50;6.30;;;;;;;13.40;61.35;99733.84;516611;1092;117076;-59
2021/06/08 00:21:10;;;;;;;9.13;5.97;;;;;;;13.19;61.78;99717.81;513678;1093;116491;-59
2021/06/08 00:31:16;;;;;;;8.33;6.97;;;;;;;13.03;62.30;99725.99;531023;1092;117453;-59
2021/06/08 00:41:32;;;;;;;9.47;5.47;;;;;;;12.95;62.67;99723.06;530984;1092;117106;-60
2021/06/08 00:51:39;;;;;;;6.67;5.93;;;;;;;12.85;62.90;99722.89;526247;1092;116730;-59
2021/06/08 01:01:45;;;;;;;8.73;5.73;;;;;;;12.75;63.20;99710.36;530881;1092;116817;-60
2021/06/08 01:11:51;;;;;;;8.60;6.17;;;;;;;12.60;63.13;99711.47;515904;1093;116111;-60
2021/06/08 01:21:57;;;;;;;8.53;6.90;;;;;;;12.43;63.46;99710.02;512709;1092;116358;-60
2021/06/08 01:32:06;;;;;;;8.67;6.97;;;;;;;12.28;63.69;99706.66;523178;1092;116129;-59
2021/06/08 01:42:13;;;;;;;7.87;6.40;;;;;;;12.21;64.17;99703.61;529886;1092;117591;-59
2021/06/08 01:52:29;;;;;;;9.23;6.93;;;;;;;12.12;64.92;99707.73;530962;1092;116818;-59
2021/06/08 02:02:46;;;;;;;9.00;5.77;;;;;;;12.07;64.76;99704.55;530044;1093;116425;-58
2021/06/08 02:12:59;;;;;;;9.47;6.03;;;;;;;11.99;65.00;99717.35;531113;1093;116743;-59
2021/06/08 02:23:10;;;;;;;8.67;6.77;;;;;;;11.94;65.05;99708.94;527082;1092;115573;-60
2021/06/08 02:33:17;;;;;;;8.67;5.37;;;;;;;11.96;65.27;99710.53;530299;1092;116065;-59
2021/06/08 02:43:25;;;;;;;6.57;5.47;;;;;;;12.02;65.13;99711.94;521899;1091;116603;-59
2021/06/08 02:53:32;;;;;;;13.55;6.85;;;;;;;12.89;65.32;99711.16;529339;1092;116890;-60
2021/06/08 03:03:40;;;;;;;9.00;6.40;;;;;;;15.33;62.93;99719.09;524584;1092;116151;-59
2021/06/08 03:13:46;;;;;;;;;;;;;;;18.07;57.63;99724.61;530789;1092;116122;-59
2021/06/08 03:23:56;;;;;;;13.83;6.17;;;;;;;18.71;55.29;99735.40;530688;1092;103420;-60
2021/06/08 03:34:04;;;;;;;16.47;6.23;;;;;;;18.58;53.54;99737.57;531078;1092;116798;-60
2021/06/08 03:44:12;;;;;;;13.70;6.60;;;;;;;17.58;54.20;99749.36;527973;1092;116199;-59
2021/06/08 03:54:19;;;;;;;24.53;7.80;;;;;;;19.95;54.64;99743.77;529950;1092;116644;-59
2021/06/08 04:04:26;;;;;;;47.37;10.80;;;;;;;28.19;44.50;99742.73;519749;1093;117103;-60
2021/06/08 04:14:33;;;;;;;24.93;6.83;;;;;;;32.92;36.64;99735.41;525684;1091;116818;-60
2021/06/08 04:24:39;;;;;;;12.13;6.27;;;;;;;35.39;30.15;99752.72;521569;1092;116244;-59
2021/06/08 04:34:48;;;;;;;8.70;5.00;;;;;;;38.23;26.65;99734.63;528485;1092;116628;-59
2021/06/08 04:44:55;;;;;;;7.73;4.78;;;;;;;41.26;22.62;99732.25;525755;1092;116468;-59
2021/06/08 04:55:01;;;;;;;10.38;4.58;;;;;;;44.54;20.34;99735.41;524325;1092;116263;-60
2021/06/08 05:05:12;;;;;;;8.33;3.53;;;;;;;45.87;16.53;99725.77;525199;1092;115977;-61
2021/06/08 05:15:20;;;;;;;5.15;3.70;;;;;;;46.39;15.71;99737.70;517418;1092;115814;-61
2021/06/08 05:25:29;;;;;;;3.27;2.97;;;;;;;47.51;14.15;99740.95;531019;1092;116326;-62
2021/06/08 05:35:35;;;;;;;8.98;3.85;;;;;;;46.76;13.62;99741.87;517798;1091;116424;-62
2021/06/08 05:45:42;;;;;;;6.13;3.65;;;;;;;49.70;12.50;99734.19;527658;1093;116154;-62
2021/06/08 05:55:52;;;;;;;6.08;3.50;;;;;;;49.35;10.72;99728.17;519488;1092;116041;-61
2021/06/08 06:05:58;;;;;;;7.23;3.50;;;;;;;47.56;11.51;99734.36;530209;1093;117107;-60
2021/06/08 06:16:05;;;;;;;7.57;3.10;;;;;;;48.00;11.34;99741.34;523972;1092;116464;-61
2021/06/08 06:26:12;;;;;;;7.95;3.08;;;;;;;48.87;11.33;99742.00;527128;1092;118371;-59
2021/06/08 06:36:21;;;;;;;6.93;3.80;;;;;;;49.81;9.81;99731.66;530273;1092;115840;-61
2021/06/08 06:46:32;;;;;;;5.65;3.88;;;;;;;50.37;10.30;99744.52;531004;1092;116007;-60
2021/06/08 06:56:39;;;;;;;5.77;4.27;;;;;;;50.78;9.77;99749.77;530240;1092;116260;-59
2021/06/08 07:06:46;;;;;;;9.43;4.30;;;;;;;50.46;9.64;99752.70;526381;1091;115619;-59
2021/06/08 07:16:53;;;;;;;5.60;5.03;;;;;;;49.30;9.84;99752.72;509948;1092;10002009;-58
2021/06/08 07:27:00;;;;;;;6.55;4.70;;;;;;;49.70;9.44;99748.95;529900;1092;116871;-59
2021/06/08 07:37:07;;;;;;;8.08;4.73;;;;;;;50.30;9.46;99747.17;530869;1093;117621;-60
2021/06/08 07:47:16;;;;;;;3.80;2.35;;;;;;;47.67;9.22;99746.65;530907;1092;116204;-58
2021/06/08 07:57:24;;;;;;;3.60;2.60;;;;;;;36.57;15.26;99746.38;528160;1092;116876;-60
2021/06/08 08:07:49;;;;;;;6.60;3.60;;;;;;;31.90;20.35;99763.67;524904;1092;115565;-58
2021/06/08 08:17:56;;;;;;;5.60;2.60;;;;;;;29.90;22.79;99774.94;513444;1092;117352;-56
2021/06/08 08:28:03;;;;;;;3.03;2.77;;;;;;;28.67;24.92;99763.16;530879;1092;115969;-57
2021/06/08 08:38:09;;;;;;;3.93;3.15;;;;;;;27.93;26.55;99763.30;517486;1091;116876;-55
2021/06/08 08:48:16;;;;;;;10.23;3.70;;;;;;;27.24;28.20;99763.44;524529;1092;116915;-56
2021/06/08 08:58:27;;;;;;;5.03;2.90;;;;;;;27.11;28.31;99772.31;516066;1093;116062;-55
2021/06/08 09:08:34;;;;;;;7.73;3.83;;;;;;;27.11;29.25;99771.47;520435;1092;116212;-56
2021/06/08 09:18:41;;;;;;;2.87;2.57;;;;;;;26.92;29.21;99765.83;526859;1092;115859;-56
2021/06/08 09:28:48;;;;;;;4.30;2.20;;;;;;;26.78;28.91;99764.91;517783;1092;117345;-55
2021/06/08 09:38:54;;;;;;;;;;;;;;;26.94;28.55;99765.61;526519;1092;116571;-55
2021/06/08 09:49:02;;;;;;;2.17;2.00;;;;;;;27.01;27.59;99763.78;515366;1092;102682;-56
2021/06/08 09:59:08;;;;;;;3.23;2.30;;;;;;;27.49;27.43;99762.85;521091;1093;116177;-57
2021/06/08 10:09:16;;;;;;;4.67;2.70;;;;;;;27.67;27.50;99759.58;526316;1092;116430;-60
2021/06/08 10:19:28;;;;;;;4.93;2.95;;;;;;;27.44;28.22;99757.23;529746;1092;116841;-55
2021/06/08 10:29:35;;;;;;;5.30;2.70;;;;;;;27.40;28.48;99753.30;520563;1091;116268;-57
2021/06/08 10:39:45;;;;;;;2.70;2.50;;;;;;;26.91;29.12;99757.94;515983;1092;116556;-58
2021/06/08 10:49:52;;;;;;;6.07;3.37;;;;;;;26.10;29.54;99765.54;520468;1091;116962;-57
2021/06/08 10:59:57;;;;;;;;;;;;;;;26.67;28.91;99760.95;516049;1091;115867;-56
2021/06/08 11:10:25;;;;;;;2.60;2.40;;;;;;;26.41;28.45;99748.98;524998;1092;102984;-58
2021/06/08 11:20:31;;;;;;;8.00;2.65;;;;;;;25.68;29.77;99747.42;518923;1092;116145;-56
2021/06/08 11:30:40;;;;;;;5.77;2.40;;;;;;;25.58;29.90;99730.82;526494;1092;117016;-59
2021/06/08 11:40:52;;;;;;;3.40;2.20;;;;;;;26.05;29.23;99733.03;527991;1092;116403;-59
2021/06/08 11:50:59;;;;;;;6.05;2.50;;;;;;;25.59;29.69;99730.61;529490;1091;115828;-58
2021/06/08 12:01:08;;;;;;;4.20;2.40;;;;;;;26.01;29.74;99719.95;526446;1091;117051;-57
2021/06/08 12:11:17;;;;;;;4.73;2.47;;;;;;;25.64;29.89;99721.96;522481;1093;116271;-56
2021/06/08 12:21:23;;;;;;;4.43;1.90;;;;;;;25.99;28.66;99705.88;530072;1091;116571;-57
2021/06/08 12:31:30;;;;;;;2.65;2.45;;;;;;;25.88;29.33;99712.64;520038;1093;115826;-56
2021/06/08 12:41:37;;;;;;;5.03;2.37;;;;;;;25.84;28.24;99699.78;524961;1092;116580;-54
2021/06/08 12:51:45;;;;;;;4.55;1.98;;;;;;;26.20;28.65;99697.94;523876;1093;116391;-57
2021/06/08 13:01:51;;;;;;;;;;;;;;;26.33;28.87;99691.81;515231;1093;116146;-57
2021/06/08 13:12:09;;;;;;;3.43;2.50;;;;;;;26.24;28.45;99689.27;520731;1092;102276;-57
2021/06/08 13:22:18;;;;;;;4.30;2.63;;;;;;;25.38;28.49;99687.59;527767;1093;116302;-58
2021/06/08 13:32:27;;;;;;;3.30;1.97;;;;;;;25.32;28.80;99676.60;522248;1093;115760;-57
2021/06/08 13:42:33;;;;;;;6.00;2.67;;;;;;;25.43;28.27;99661.80;531039;1092;115982;-60
2021/06/08 13:53:02;;;;;;;5.10;2.45;;;;;;;25.43;27.86;99661.80;524417;1092;117979;-58
2021/06/08 14:03:20;;;;;;;5.67;3.87;;;;;;;25.42;28.07;99645.88;521393;1092;116382;-50
2021/06/08 14:13:31;;;;;;;3.27;2.30;;;;;;;25.44;28.24;99649.20;523925;1091;116194;-56
2021/06/08 14:23:38;;;;;;;2.27;2.07;;;;;;;25.54;28.52;99630.91;522187;1092;116957;-57
2021/06/08 14:33:44;;;;;;;2.40;2.20;;;;;;;25.55;29.19;99621.81;518667;1089;116337;-55
2021/06/08 14:43:52;;;;;;;6.20;2.63;;;;;;;25.89;28.85;99616.63;519374;1089;116619;-58
2021/06/08 14:53:58;;;;;;;4.33;2.17;;;;;;;26.01;28.75;99598.90;517492;1089;115862;-54
2021/06/08 15:04:04;;;;;;;4.23;2.33;;;;;;;26.00;28.99;99616.07;519107;1089;115871;-56
2021/06/08 15:14:12;;;;;;;2.77;2.30;;;;;;;25.88;29.17;99605.06;520374;1088;116305;-56
2021/06/08 15:24:19;;;;;;;6.73;2.90;;;;;;;25.81;30.49;99604.19;525099;1089;116519;-58
2021/06/08 15:34:28;;;;;;;4.90;2.63;;;;;;;25.72;30.59;99608.90;522625;1088;116324;-57
2021/06/08 15:44:35;;;;;;;3.70;2.17;;;;;;;25.70;31.04;99608.27;519919;1089;116231;-59
2021/06/08 15:54:42;;;;;;;6.25;2.70;;;;;;;25.46;31.32;99601.45;527931;1088;115718;-50
2021/06/08 16:04:49;;;;;;;3.50;2.48;;;;;;;25.62;31.05;99613.80;523315;1089;117158;-55
2021/06/08 16:14:55;;;;;;;5.50;3.20;;;;;;;25.88;31.25;99601.53;523715;1089;115908;-53
2021/06/08 16:25:18;;;;;;;4.93;2.70;;;;;;;25.70;30.93;99593.98;527612;1089;116002;-54
2021/06/08 16:35:25;;;;;;;3.97;2.50;;;;;;;25.37;31.13;99603.47;526594;1089;115423;-52
2021/06/08 16:45:32;;;;;;;5.95;2.85;;;;;;;25.51;31.62;99600.90;515559;1088;116219;-52
2021/06/08 16:55:39;;;;;;;4.27;2.73;;;;;;;25.01;32.07;99588.30;519073;1090;117894;-55
2021/06/08 17:05:49;;;;;;;5.23;2.65;;;;;;;24.49;32.95;99596.42;523157;1089;115758;-54
2021/06/08 17:15:57;;;;;;;3.77;2.53;;;;;;;24.24;34.02;99607.50;524886;1090;118195;-54
2021/06/08 17:26:04;;;;;;;4.50;2.20;;;;;;;24.04;34.36;99607.25;516707;1088;116541;-55
2021/06/08 17:36:12;;;;;;;6.50;2.90;;;;;;;23.85;34.77;99608.63;526025;1088;116172;-53
2021/06/08 17:46:17;;;;;;;;;;;;;;;23.61;35.71;99616.73;521004;1088;115655;-51
2021/06/08 17:56:24;;;;;;;3.60;2.73;;;;;;;24.21;34.98;99619.42;523839;1088;102090;-53
2021/06/08 18:06:31;;;;;;;6.48;2.50;;;;;;;23.41;35.86;99620.95;514814;1089;115216;-52
2021/06/08 18:16:42;;;;;;;12.03;4.97;;;;;;;22.92;36.95;99622.99;514931;1088;116566;-53
2021/06/08 18:26:49;;;;;;;7.63;3.03;;;;;;;22.56;38.98;99648.45;515296;1089;118475;-53
2021/06/08 18:36:56;;;;;;;3.67;3.17;;;;;;;22.14;40.82;99655.80;522153;1088;116825;-53
2021/06/08 18:47:03;;;;;;;5.90;3.05;;;;;;;21.78;42.31;99664.25;500384;1089;10001847;-51
2021/06/08 18:57:09;;;;;;;4.37;3.33;;;;;;;21.42;43.93;99663.59;515575;1088;118191;-53
2021/06/08 19:07:17;;;;;;;6.50;3.33;;;;;;;21.15;44.70;99678.10;515932;1090;115993;-63
2021/06/08 19:17:23;;;;;;;4.00;3.13;;;;;;;20.89;44.83;99689.75;515721;1090;116066;-50
2021/06/08 19:27:34;;;;;;;3.45;3.15;;;;;;;20.65;45.79;99691.32;528976;1088;115898;-54
2021/06/08 19:37:41;;;;;;;5.07;3.17;;;;;;;20.43;46.32;99706.05;514846;1090;118178;-55
2021/06/08 19:47:49;;;;;;;4.25;3.35;;;;;;;20.19;47.97;99712.94;513992;1089;116267;-54
2021/06/08 19:57:57;;;;;;;5.90;4.13;;;;;;;19.93;48.61;99720.97;525573;1088;115989;-50
2021/06/08 20:08:05;;;;;;;3.90;3.60;;;;;;;19.65;49.17;99713.05;522608;1090;115950;-50
2021/06/08 20:18:12;;;;;;;9.27;4.20;;;;;;;19.39;50.33;99713.84;523178;1089;116024;-51
2021/06/08 20:28:21;;;;;;;4.27;3.60;;;;;;;19.17;51.21;99708.84;518250;1089;116400;-54
2021/06/08 20:38:30;;;;;;;7.20;3.90;;;;;;;19.00;51.75;99720.29;514687;1089;116088;-51
2021/06/08 20:48:36;;;;;;;5.30;3.53;;;;;;;18.84;51.81;99719.11;516893;1089;116933;-52
2021/06/08 20:58:43;;;;;;;4.33;3.93;;;;;;;18.69;51.97;99729.40;515283;1090;115899;-51
2021/06/08 21:08:50;;;;;;;7.13;4.27;;;;;;;18.52;52.06;99735.48;524525;1090;116187;-51
2021/06/08 21:18:56;;;;;;;4.77;4.10;;;;;;;18.33;52.77;99740.73;515950;1088;115749;-50
2021/06/08 21:29:07;;;;;;;7.00;4.47;;;;;;;18.30;52.94;99758.81;527941;1089;115578;-53
2021/06/08 21:39:15;;;;;;;4.35;3.93;;;;;;;18.22;53.52;99761.34;519736;1087;116181;-54
2021/06/08 21:49:22;;;;;;;6.20;4.63;;;;;;;18.01;53.80;99767.64;516344;1089;116037;-51
2021/06/08 21:59:31;;;;;;;5.67;4.60;;;;;;;17.77;54.51;99769.75;523705;1089;116532;-53
2021/06/08 22:09:37;;;;;;;4.70;4.30;;;;;;;17.70;55.06;99771.31;516267;1089;116927;-48
2021/06/08 22:19:44;;;;;;;4.43;4.03;;;;;;;17.61;55.52;99773.00;520076;1090;116458;-51
2021/06/08 22:29:51;;;;;;;4.60;4.20;;;;;;;17.50;55.80;99786.41;525334;1090;117016;-53
2021/06/08 22:39:57;;;;;;;5.17;4.60;;;;;;;17.35;56.04;99768.21;530382;1089;116166;-52
2021/06/08 22:50:07;;;;;;;5.10;4.60;;;;;;;17.25;56.66;99775.32;513771;1090;116629;-52
2021/06/08 23:00:18;;;;;;;8.03;5.17;;;;;;;17.17;56.81;99769.88;513875;1089;116648;-53
2021/06/08 23:10:24;;;;;;;6.17;4.40;;;;;;;16.97;57.00;99759.19;515870;1089;116148;-50
2021/06/08 23:20:31;;;;;;;5.37;4.40;;;;;;;16.74;57.74;99764.70;514440;1088;116616;-50
2021/06/08 23:30:37;;;;;;;4.23;3.83;;;;;;;16.58;58.17;99756.42;516474;1088;116386;-53
2021/06/08 23:40:44;;;;;;;4.67;4.17;;;;;;;16.59;58.38;99758.09;517343;1089;115643;-55
2021/06/08 23:50:50;;;;;;;4.83;3.93;;;;;;;16.65;58.95;99762.84;521719;1089;117466;-51
